createdAt,value
2017-12-31T00:00:51.880Z,993.59
2017-12-31T00:02:01.850Z,993.72
2017-12-31T00:03:11.555Z,993.61
2017-12-31T00:04:21.517Z,993.69
2017-12-31T00:05:31.470Z,993.68
2017-12-31T00:06:41.164Z,993.65
2017-12-31T00:07:51.108Z,993.68
2017-12-31T00:09:00.811Z,993.63
2017-12-31T00:10:10.517Z,993.79
2017-12-31T00:11:20.475Z,994.04
2017-12-31T00:12:30.428Z,993.76
2017-12-31T00:13:40.395Z,993.98
2017-12-31T00:14:50.372Z,993.91
2017-12-31T00:16:00.314Z,993.87
2017-12-31T00:17:10.023Z,993.92
2017-12-31T00:18:19.985Z,994.03
2017-12-31T00:19:29.941Z,993.81
2017-12-31T00:20:39.902Z,993.83
2017-12-31T00:21:49.842Z,993.92
2017-12-31T00:22:59.798Z,994.24
2017-12-31T00:24:09.515Z,994.12
2017-12-31T00:25:18.998Z,994.11
2017-12-31T00:26:29.011Z,994.23
2017-12-31T00:27:38.467Z,994.16
2017-12-31T00:28:48.448Z,994.18
2017-12-31T00:29:58.166Z,994.2
2017-12-31T00:31:08.132Z,994.55
2017-12-31T00:32:18.084Z,994.23
2017-12-31T00:33:28.025Z,994.08
2017-12-31T00:34:37.728Z,994.62
2017-12-31T00:35:47.699Z,994.39
2017-12-31T00:36:57.649Z,994.28
2017-12-31T00:38:07.624Z,994.36
2017-12-31T00:39:17.586Z,994.29
2017-12-31T00:40:27.525Z,994.35
2017-12-31T00:41:37.500Z,994.23
2017-12-31T00:42:47.202Z,994.42
2017-12-31T00:43:57.174Z,994.29
2017-12-31T00:45:06.889Z,994.37
2017-12-31T00:46:16.343Z,994.09
2017-12-31T00:47:26.303Z,994.43
2017-12-31T00:48:36.282Z,994.4
2017-12-31T00:49:46.228Z,994.57
2017-12-31T00:50:56.178Z,994.49
2017-12-31T00:52:05.883Z,994.57
2017-12-31T00:53:15.849Z,994.48
2017-12-31T00:54:25.798Z,994.72
2017-12-31T00:55:35.769Z,994.68
2017-12-31T00:56:45.730Z,994.7
2017-12-31T00:57:55.718Z,994.69
2017-12-31T00:59:05.686Z,994.75
2017-12-31T01:00:15.648Z,994.87
2017-12-31T01:01:25.599Z,994.84
2017-12-31T01:02:35.601Z,994.66
2017-12-31T01:03:45.296Z,994.83
2017-12-31T01:04:55.274Z,995.01
2017-12-31T01:06:05.256Z,995
2017-12-31T01:07:15.212Z,995.1
2017-12-31T01:08:25.178Z,995.06
2017-12-31T01:09:34.878Z,994.97
2017-12-31T01:10:44.585Z,995.27
2017-12-31T01:11:54.272Z,995.11
2017-12-31T01:13:04.227Z,995.16
2017-12-31T01:14:13.921Z,995.21
2017-12-31T01:15:23.642Z,995.38
2017-12-31T01:16:33.136Z,995.25
2017-12-31T01:17:42.845Z,995.42
2017-12-31T01:18:52.787Z,995.11
2017-12-31T01:20:02.749Z,995.22
2017-12-31T01:21:12.707Z,995.25
2017-12-31T01:22:22.665Z,995.42
2017-12-31T01:23:32.677Z,995.46
2017-12-31T01:24:42.630Z,995.46
2017-12-31T01:25:52.324Z,995.7
2017-12-31T01:27:02.285Z,995.46
2017-12-31T01:28:11.986Z,995.54
2017-12-31T01:29:21.674Z,995.53
2017-12-31T01:30:31.361Z,995.58
2017-12-31T01:31:41.047Z,995.56
2017-12-31T01:32:50.990Z,995.69
2017-12-31T01:34:00.699Z,995.7
2017-12-31T01:35:10.692Z,995.76
2017-12-31T01:36:20.400Z,995.68
2017-12-31T01:37:30.358Z,995.72
2017-12-31T01:38:40.326Z,995.7
2017-12-31T01:39:50.272Z,995.69
2017-12-31T01:40:59.976Z,995.79
2017-12-31T01:42:09.931Z,995.82
2017-12-31T01:43:19.621Z,995.94
2017-12-31T01:44:29.583Z,995.94
2017-12-31T01:45:39.531Z,995.88
2017-12-31T01:46:49.229Z,995.88
2017-12-31T01:47:58.666Z,995.97
2017-12-31T01:49:08.630Z,995.99
2017-12-31T01:50:18.583Z,996.08
2017-12-31T01:51:28.284Z,995.96
2017-12-31T01:52:38.233Z,996.14
2017-12-31T01:53:47.930Z,996.28
2017-12-31T01:54:57.876Z,996.12
2017-12-31T01:56:07.825Z,996.14
2017-12-31T01:57:17.506Z,996.07
2017-12-31T01:58:27.189Z,996.17
2017-12-31T01:59:36.871Z,996.13
2017-12-31T02:00:46.832Z,996.15
2017-12-31T02:01:56.787Z,996.18
2017-12-31T02:03:06.752Z,996.11
2017-12-31T02:04:16.451Z,996.2
2017-12-31T02:05:26.395Z,996.18
2017-12-31T02:06:36.347Z,996.27
2017-12-31T02:07:46.031Z,996.33
2017-12-31T02:08:55.980Z,996.29
2017-12-31T02:10:05.926Z,996.31
2017-12-31T02:11:15.358Z,996.35
2017-12-31T02:12:25.320Z,996.41
2017-12-31T02:13:35.004Z,996.43
2017-12-31T02:14:44.698Z,996.46
2017-12-31T02:15:54.651Z,996.49
2017-12-31T02:17:04.614Z,996.33
2017-12-31T02:18:14.365Z,996.28
2017-12-31T02:19:24.054Z,996.47
2017-12-31T02:20:34.047Z,996.52
2017-12-31T02:21:43.991Z,996.43
2017-12-31T02:22:53.946Z,996.51
2017-12-31T02:24:03.682Z,996.52
2017-12-31T02:25:13.379Z,996.58
2017-12-31T02:26:23.378Z,996.65
2017-12-31T02:27:33.336Z,996.57
2017-12-31T02:28:43.288Z,996.57
2017-12-31T02:29:53.276Z,996.55
2017-12-31T02:31:02.992Z,996.78
2017-12-31T02:32:12.941Z,996.64
2017-12-31T02:33:22.904Z,996.65
2017-12-31T02:34:32.344Z,996.79
2017-12-31T02:35:42.293Z,996.73
2017-12-31T02:36:52.250Z,996.59
2017-12-31T02:38:01.988Z,996.68
2017-12-31T02:39:11.950Z,996.63
2017-12-31T02:40:21.896Z,996.51
2017-12-31T02:41:31.850Z,996.68
2017-12-31T02:42:41.807Z,996.79
2017-12-31T02:43:51.515Z,996.72
2017-12-31T02:45:01.461Z,996.83
2017-12-31T02:46:11.416Z,996.8
2017-12-31T02:47:21.112Z,996.87
2017-12-31T02:48:30.802Z,996.76
2017-12-31T02:49:40.512Z,996.85
2017-12-31T02:50:50.481Z,996.95
2017-12-31T02:52:00.180Z,996.99
2017-12-31T02:53:10.146Z,996.92
2017-12-31T02:54:19.848Z,996.9
2017-12-31T02:55:29.637Z,997.04
2017-12-31T02:56:39.264Z,996.98
2017-12-31T02:57:49.208Z,996.94
2017-12-31T02:58:59.151Z,996.91
2017-12-31T03:00:09.092Z,997.01
2017-12-31T03:01:18.781Z,996.95
2017-12-31T03:02:28.499Z,996.93
2017-12-31T03:03:38.195Z,997.14
2017-12-31T03:04:48.140Z,997.02
2017-12-31T03:05:58.079Z,997.09
2017-12-31T03:07:07.506Z,997.11
2017-12-31T03:08:17.466Z,997.02
2017-12-31T03:09:27.399Z,997.05
2017-12-31T03:10:37.334Z,997.08
2017-12-31T03:11:47.278Z,997.06
2017-12-31T03:12:57.254Z,997.2
2017-12-31T03:14:06.936Z,997.19
2017-12-31T03:15:16.890Z,997.34
2017-12-31T03:16:26.579Z,997.25
2017-12-31T03:17:36.272Z,997.34
2017-12-31T03:18:46.231Z,997.38
2017-12-31T03:19:55.921Z,997.37
2017-12-31T03:21:05.873Z,997.3
2017-12-31T03:22:15.818Z,997.21
2017-12-31T03:23:25.504Z,997.35
2017-12-31T03:24:35.201Z,997.28
2017-12-31T03:25:44.896Z,997.38
2017-12-31T03:26:54.336Z,997.34
2017-12-31T03:28:04.275Z,997.35
2017-12-31T03:29:14.219Z,997.38
2017-12-31T03:30:24.169Z,997.46
2017-12-31T03:31:34.127Z,997.51
2017-12-31T03:32:43.834Z,997.49
2017-12-31T03:33:53.522Z,997.63
2017-12-31T03:35:03.458Z,997.61
2017-12-31T03:36:13.057Z,997.64
2017-12-31T03:37:22.744Z,997.71
2017-12-31T03:38:32.686Z,997.68
2017-12-31T03:39:42.382Z,997.66
2017-12-31T03:40:52.342Z,997.68
2017-12-31T03:42:02.040Z,997.61
2017-12-31T03:43:11.989Z,997.78
2017-12-31T03:44:21.927Z,997.82
2017-12-31T03:45:31.863Z,997.81
2017-12-31T03:46:41.559Z,997.95
2017-12-31T03:47:51.031Z,997.87
2017-12-31T03:49:00.977Z,997.87
2017-12-31T03:50:10.918Z,997.85
2017-12-31T03:51:20.616Z,997.87
2017-12-31T03:52:30.300Z,997.91
2017-12-31T03:53:40.252Z,997.87
2017-12-31T03:54:49.951Z,997.94
2017-12-31T03:55:59.904Z,997.97
2017-12-31T03:57:09.837Z,997.96
2017-12-31T03:58:19.786Z,997.98
2017-12-31T03:59:29.476Z,998.05
2017-12-31T04:00:39.420Z,997.97
2017-12-31T04:01:49.111Z,998
2017-12-31T04:02:59.060Z,997.98
2017-12-31T04:04:08.747Z,998.06
2017-12-31T04:05:18.438Z,998.02
2017-12-31T04:06:28.127Z,998.04
2017-12-31T04:07:38.086Z,998.01
2017-12-31T04:08:48.030Z,997.96
2017-12-31T04:09:57.460Z,998.01
2017-12-31T04:11:07.138Z,998
2017-12-31T04:12:17.077Z,998.13
2017-12-31T04:13:27.022Z,998.02
2017-12-31T04:14:37.021Z,998.02
2017-12-31T04:15:46.963Z,998.01
2017-12-31T04:16:56.904Z,997.98
2017-12-31T04:18:06.601Z,997.96
2017-12-31T04:19:16.288Z,998
2017-12-31T04:20:25.978Z,998
2017-12-31T04:21:35.668Z,998.01
2017-12-31T04:22:45.610Z,998.04
2017-12-31T04:23:55.569Z,998.09
2017-12-31T04:25:05.272Z,998.08
2017-12-31T04:26:15.225Z,998.11
2017-12-31T04:27:24.910Z,998.11
2017-12-31T04:28:34.601Z,998.1
2017-12-31T04:29:44.293Z,998.13
2017-12-31T04:30:54.230Z,998.16
2017-12-31T04:32:03.916Z,998.19
2017-12-31T04:33:13.868Z,998.2
2017-12-31T04:34:23.813Z,998.25
2017-12-31T04:35:33.241Z,998.2
2017-12-31T04:36:42.668Z,998.27
2017-12-31T04:37:52.623Z,998.31
2017-12-31T04:39:02.569Z,998.33
2017-12-31T04:40:12.519Z,998.33
2017-12-31T04:41:22.460Z,998.41
2017-12-31T04:42:31.895Z,998.4
2017-12-31T04:43:41.851Z,998.48
2017-12-31T04:44:51.797Z,998.45
2017-12-31T04:46:01.478Z,998.45
2017-12-31T04:47:11.154Z,998.49
2017-12-31T04:48:21.106Z,998.49
2017-12-31T04:49:30.798Z,998.47
2017-12-31T04:50:40.748Z,998.47
2017-12-31T04:51:50.693Z,998.46
2017-12-31T04:53:00.636Z,998.46
2017-12-31T04:54:10.326Z,998.47
2017-12-31T04:55:20.068Z,998.42
2017-12-31T04:56:30.007Z,998.38
2017-12-31T04:57:39.948Z,998.32
2017-12-31T04:58:49.627Z,998.35
2017-12-31T04:59:59.323Z,998.36
2017-12-31T05:01:09.324Z,998.38
2017-12-31T05:02:19.280Z,998.37
2017-12-31T05:03:29.224Z,998.41
2017-12-31T05:04:39.167Z,998.38
2017-12-31T05:05:49.114Z,998.33
2017-12-31T05:06:59.046Z,998.39
2017-12-31T05:08:08.475Z,998.42
2017-12-31T05:09:18.413Z,998.53
2017-12-31T05:10:28.107Z,998.53
2017-12-31T05:11:38.056Z,998.56
2017-12-31T05:12:48.016Z,998.57
2017-12-31T05:13:57.949Z,998.61
2017-12-31T05:15:07.896Z,998.66
2017-12-31T05:16:17.831Z,998.7
2017-12-31T05:17:27.768Z,998.77
2017-12-31T05:18:37.469Z,998.7
2017-12-31T05:19:47.144Z,998.67
2017-12-31T05:20:57.095Z,998.66
2017-12-31T05:22:06.778Z,998.65
2017-12-31T05:23:16.723Z,998.56
2017-12-31T05:24:26.673Z,998.59
2017-12-31T05:25:36.609Z,998.59
2017-12-31T05:26:46.560Z,998.54
2017-12-31T05:27:56.510Z,998.5
2017-12-31T05:29:06.464Z,998.53
2017-12-31T05:30:16.404Z,998.58
2017-12-31T05:31:26.097Z,998.64
2017-12-31T05:32:36.038Z,998.58
2017-12-31T05:33:45.976Z,998.54
2017-12-31T05:34:55.658Z,998.59
2017-12-31T05:36:05.103Z,998.62
2017-12-31T05:37:15.049Z,998.6
2017-12-31T05:38:24.507Z,998.54
2017-12-31T05:39:34.455Z,998.61
2017-12-31T05:40:44.392Z,998.58
2017-12-31T05:41:54.078Z,998.58
2017-12-31T05:43:04.021Z,998.65
2017-12-31T05:44:13.975Z,998.64
2017-12-31T05:45:23.929Z,998.74
2017-12-31T05:46:33.873Z,998.69
2017-12-31T05:47:43.820Z,998.75
2017-12-31T05:48:53.757Z,998.73
2017-12-31T05:50:03.452Z,998.75
2017-12-31T05:51:13.452Z,998.73
2017-12-31T05:52:23.404Z,998.76
2017-12-31T05:53:33.357Z,998.82
2017-12-31T05:54:43.290Z,998.81
2017-12-31T05:55:53.234Z,998.82
2017-12-31T05:57:02.914Z,998.81
2017-12-31T05:58:12.868Z,998.83
2017-12-31T05:59:22.808Z,998.83
2017-12-31T06:00:32.494Z,998.85
2017-12-31T06:01:42.423Z,998.78
2017-12-31T06:02:52.598Z,998.78
2017-12-31T06:04:02.545Z,998.79
2017-12-31T06:05:12.494Z,998.75
2017-12-31T06:06:21.928Z,998.76
2017-12-31T06:07:31.666Z,998.72
2017-12-31T06:08:41.605Z,998.78
2017-12-31T06:09:51.295Z,998.81
2017-12-31T06:11:01.241Z,998.88
2017-12-31T06:12:11.189Z,998.87
2017-12-31T06:13:21.383Z,998.91
2017-12-31T06:14:30.826Z,998.82
2017-12-31T06:15:40.775Z,998.87
2017-12-31T06:16:50.478Z,998.79
2017-12-31T06:18:00.183Z,998.79
2017-12-31T06:19:10.140Z,998.83
2017-12-31T06:20:20.081Z,998.8
2017-12-31T06:21:30.036Z,998.82
2017-12-31T06:22:39.721Z,998.8
2017-12-31T06:23:49.771Z,998.79
2017-12-31T06:24:59.465Z,998.84
2017-12-31T06:26:09.416Z,998.85
2017-12-31T06:27:19.366Z,998.89
2017-12-31T06:28:29.304Z,998.82
2017-12-31T06:29:39.246Z,998.83
2017-12-31T06:30:49.199Z,998.89
2017-12-31T06:31:59.137Z,998.82
2017-12-31T06:33:09.084Z,998.79
2017-12-31T06:34:19.026Z,998.79
2017-12-31T06:35:28.971Z,998.81
2017-12-31T06:36:38.649Z,998.84
2017-12-31T06:37:48.336Z,998.91
2017-12-31T06:38:58.284Z,998.89
2017-12-31T06:40:07.981Z,998.91
2017-12-31T06:41:17.913Z,998.93
2017-12-31T06:42:27.852Z,998.94
2017-12-31T06:43:37.553Z,998.9
2017-12-31T06:44:47.767Z,998.92
2017-12-31T06:45:57.712Z,998.95
2017-12-31T06:47:07.679Z,998.96
2017-12-31T06:48:17.365Z,998.97
2017-12-31T06:49:27.308Z,998.97
2017-12-31T06:50:37.004Z,998.98
2017-12-31T06:51:46.939Z,999.02
2017-12-31T06:52:56.633Z,998.99
2017-12-31T06:54:06.319Z,999
2017-12-31T06:55:16.004Z,998.94
2017-12-31T06:56:25.959Z,998.95
2017-12-31T06:57:35.640Z,998.93
2017-12-31T06:58:45.584Z,998.88
2017-12-31T06:59:55.277Z,998.89
2017-12-31T07:01:05.248Z,998.88
2017-12-31T07:02:15.201Z,998.81
2017-12-31T07:03:25.151Z,998.82
2017-12-31T07:04:35.097Z,998.84
2017-12-31T07:05:45.085Z,998.88
2017-12-31T07:06:54.774Z,998.89
2017-12-31T07:08:04.481Z,998.89
2017-12-31T07:09:14.439Z,998.9
2017-12-31T07:10:24.377Z,998.89
2017-12-31T07:11:34.316Z,998.9
2017-12-31T07:12:44.256Z,998.95
2017-12-31T07:13:53.945Z,998.92
2017-12-31T07:15:03.640Z,998.9
2017-12-31T07:16:13.345Z,998.9
2017-12-31T07:17:23.042Z,998.92
2017-12-31T07:18:32.987Z,998.94
2017-12-31T07:19:42.942Z,998.93
2017-12-31T07:20:52.474Z,998.99
2017-12-31T07:22:02.428Z,998.96
2017-12-31T07:23:12.373Z,998.99
2017-12-31T07:24:22.322Z,998.97
2017-12-31T07:25:32.012Z,998.96
2017-12-31T07:26:41.958Z,998.97
2017-12-31T07:27:51.640Z,999.01
2017-12-31T07:29:01.332Z,999
2017-12-31T07:30:11.291Z,999
2017-12-31T07:31:21.234Z,999.02
2017-12-31T07:32:31.178Z,999.04
2017-12-31T07:33:41.104Z,999.01
2017-12-31T07:34:51.058Z,999.01
2017-12-31T07:36:00.748Z,999.05
2017-12-31T07:37:10.691Z,999.05
2017-12-31T07:38:20.645Z,999.12
2017-12-31T07:39:30.596Z,999.11
2017-12-31T07:40:40.545Z,999.13
2017-12-31T07:41:50.504Z,999.11
2017-12-31T07:43:00.469Z,999.11
2017-12-31T07:44:10.413Z,999.11
2017-12-31T07:45:20.110Z,999.08
2017-12-31T07:46:29.795Z,999.05
2017-12-31T07:47:39.752Z,999.03
2017-12-31T07:48:49.706Z,999.02
2017-12-31T07:49:59.656Z,998.99
2017-12-31T07:51:09.600Z,999.05
2017-12-31T07:52:19.533Z,999.04
2017-12-31T07:53:29.486Z,999.09
2017-12-31T07:54:39.172Z,999.1
2017-12-31T07:55:48.861Z,999.1
2017-12-31T07:56:58.809Z,999.17
2017-12-31T07:58:08.749Z,999.11
2017-12-31T07:59:18.717Z,999.13
2017-12-31T08:00:28.148Z,999.09
2017-12-31T08:01:37.572Z,999.06
2017-12-31T08:02:47.260Z,999.05
2017-12-31T08:03:57.209Z,999.09
2017-12-31T08:05:07.180Z,999.1
2017-12-31T08:06:16.873Z,999.13
2017-12-31T08:07:26.816Z,999.09
2017-12-31T08:08:36.781Z,999.11
2017-12-31T08:09:46.477Z,999.12
2017-12-31T08:10:56.417Z,999.12
2017-12-31T08:12:06.359Z,999.12
2017-12-31T08:13:16.377Z,999.17
2017-12-31T08:14:26.078Z,999.18
2017-12-31T08:15:35.763Z,999.16
2017-12-31T08:16:45.466Z,999.16
2017-12-31T08:17:55.423Z,999.16
2017-12-31T08:19:05.373Z,999.14
2017-12-31T08:20:15.066Z,999.15
2017-12-31T08:21:25.011Z,999.12
2017-12-31T08:22:34.953Z,999.13
2017-12-31T08:23:44.897Z,999.06
2017-12-31T08:24:54.357Z,999.08
2017-12-31T08:26:04.313Z,999.13
2017-12-31T08:27:14.003Z,999.12
2017-12-31T08:28:23.952Z,999.07
2017-12-31T08:29:33.894Z,999.06
2017-12-31T08:30:43.834Z,999.01
2017-12-31T08:31:53.792Z,999.02
2017-12-31T08:33:03.742Z,999.02
2017-12-31T08:34:13.429Z,998.98
2017-12-31T08:35:23.373Z,999
2017-12-31T08:36:33.069Z,998.94
2017-12-31T08:37:42.753Z,998.94
2017-12-31T08:38:52.713Z,998.97
2017-12-31T08:40:02.402Z,998.99
2017-12-31T08:41:12.348Z,998.98
2017-12-31T08:42:22.315Z,998.98
2017-12-31T08:43:32.280Z,998.99
2017-12-31T08:44:41.711Z,999.02
2017-12-31T08:45:51.650Z,999.05
2017-12-31T08:47:01.607Z,999.03
2017-12-31T08:48:11.553Z,999.03
2017-12-31T08:49:21.260Z,999.05
2017-12-31T08:50:30.693Z,999.01
2017-12-31T08:51:40.641Z,999.04
2017-12-31T08:52:50.586Z,999.07
2017-12-31T08:54:00.533Z,999.02
2017-12-31T08:55:10.482Z,998.98
2017-12-31T08:56:20.422Z,998.97
2017-12-31T08:57:30.110Z,998.98
2017-12-31T08:58:40.062Z,999
2017-12-31T08:59:50.015Z,998.98
2017-12-31T09:00:59.713Z,999
2017-12-31T09:02:09.406Z,998.99
2017-12-31T09:03:19.365Z,998.99
2017-12-31T09:04:29.314Z,998.95
2017-12-31T09:05:39.010Z,998.99
2017-12-31T09:06:48.970Z,998.95
2017-12-31T09:07:58.925Z,998.93
2017-12-31T09:09:08.869Z,998.93
2017-12-31T09:10:18.826Z,998.9
2017-12-31T09:11:28.779Z,998.93
2017-12-31T09:12:38.487Z,998.92
2017-12-31T09:13:48.433Z,999.02
2017-12-31T09:14:58.163Z,998.98
2017-12-31T09:16:08.113Z,999.01
2017-12-31T09:17:18.073Z,998.99
2017-12-31T09:18:28.023Z,999.01
2017-12-31T09:19:37.990Z,998.96
2017-12-31T09:20:47.673Z,998.99
2017-12-31T09:21:57.108Z,998.95
2017-12-31T09:23:07.086Z,998.91
2017-12-31T09:24:16.523Z,998.9
2017-12-31T09:25:26.245Z,998.88
2017-12-31T09:26:36.186Z,998.9
2017-12-31T09:27:46.126Z,998.85
2017-12-31T09:28:55.809Z,998.79
2017-12-31T09:30:05.499Z,998.79
2017-12-31T09:31:15.179Z,998.77
2017-12-31T09:32:25.122Z,998.76
2017-12-31T09:33:35.165Z,998.78
2017-12-31T09:34:45.115Z,998.75
2017-12-31T09:35:55.074Z,998.68
2017-12-31T09:37:04.765Z,998.69
2017-12-31T09:38:14.716Z,998.7
2017-12-31T09:39:24.686Z,998.63
2017-12-31T09:40:34.737Z,998.68
2017-12-31T09:41:44.737Z,998.66
2017-12-31T09:42:54.682Z,998.6
2017-12-31T09:44:04.374Z,998.49
2017-12-31T09:45:14.061Z,998.48
2017-12-31T09:46:24.009Z,998.51
2017-12-31T09:47:33.700Z,998.47
2017-12-31T09:48:43.407Z,998.49
2017-12-31T09:49:53.110Z,998.47
2017-12-31T09:51:03.071Z,998.38
2017-12-31T09:52:12.779Z,998.4
2017-12-31T09:53:22.481Z,998.4
2017-12-31T09:54:32.189Z,998.4
2017-12-31T09:55:41.886Z,998.36
2017-12-31T09:56:51.577Z,998.33
2017-12-31T09:58:01.522Z,998.35
2017-12-31T09:59:11.222Z,998.33
2017-12-31T10:00:21.167Z,998.28
2017-12-31T10:01:31.115Z,998.25
2017-12-31T10:02:40.820Z,998.23
2017-12-31T10:03:50.761Z,998.27
2017-12-31T10:05:00.474Z,998.17
2017-12-31T10:06:10.427Z,998.16
2017-12-31T10:07:20.414Z,998.19
2017-12-31T10:08:30.371Z,998.13
2017-12-31T10:09:40.344Z,998.1
2017-12-31T10:10:50.051Z,998.1
2017-12-31T10:12:00.031Z,998.06
2017-12-31T10:13:09.725Z,998.09
2017-12-31T10:14:19.414Z,998.06
2017-12-31T10:15:29.375Z,998.04
2017-12-31T10:16:39.060Z,998
2017-12-31T10:17:48.509Z,997.97
2017-12-31T10:18:58.453Z,997.94
2017-12-31T10:20:08.407Z,997.92
2017-12-31T10:21:18.373Z,997.92
2017-12-31T10:22:27.810Z,997.84
2017-12-31T10:23:37.782Z,997.89
2017-12-31T10:24:47.746Z,997.82
2017-12-31T10:25:57.713Z,997.83
2017-12-31T10:27:07.682Z,997.79
2017-12-31T10:28:17.375Z,997.79
2017-12-31T10:29:27.325Z,997.75
2017-12-31T10:30:37.287Z,997.8
2017-12-31T10:31:47.231Z,997.8
2017-12-31T10:32:57.180Z,997.79
2017-12-31T10:34:07.125Z,997.75
2017-12-31T10:35:16.816Z,997.78
2017-12-31T10:36:26.515Z,997.78
2017-12-31T10:37:36.476Z,997.77
2017-12-31T10:38:46.428Z,997.74
2017-12-31T10:39:56.378Z,997.71
2017-12-31T10:41:06.321Z,997.71
2017-12-31T10:42:16.286Z,997.67
2017-12-31T10:43:26.246Z,997.74
2017-12-31T10:44:36.247Z,997.67
2017-12-31T10:45:46.196Z,997.65
2017-12-31T10:46:56.151Z,997.6
2017-12-31T10:48:06.111Z,997.56
2017-12-31T10:49:16.074Z,997.57
2017-12-31T10:50:25.775Z,997.55
2017-12-31T10:51:35.722Z,997.53
2017-12-31T10:52:45.168Z,997.48
2017-12-31T10:53:55.130Z,997.47
2017-12-31T10:55:05.073Z,997.53
2017-12-31T10:56:14.257Z,997.48
2017-12-31T10:57:23.965Z,997.44
2017-12-31T10:58:33.920Z,997.47
2017-12-31T10:59:43.889Z,997.37
2017-12-31T11:00:53.843Z,997.33
2017-12-31T11:02:03.817Z,997.3
2017-12-31T11:03:13.772Z,997.33
2017-12-31T11:04:23.730Z,997.35
2017-12-31T11:05:33.419Z,997.36
2017-12-31T11:06:43.365Z,997.33
2017-12-31T11:07:53.319Z,997.34
2017-12-31T11:09:03.276Z,997.29
2017-12-31T11:10:13.343Z,997.29
2017-12-31T11:11:23.040Z,997.25
2017-12-31T11:12:32.751Z,997.24
2017-12-31T11:13:42.709Z,997.25
2017-12-31T11:14:52.665Z,997.26
2017-12-31T11:16:02.367Z,997.33
2017-12-31T11:17:12.069Z,997.23
2017-12-31T11:18:22.047Z,997.25
2017-12-31T11:19:31.988Z,997.26
2017-12-31T11:20:41.934Z,997.25
2017-12-31T11:21:51.639Z,997.22
2017-12-31T11:23:01.581Z,997.1
2017-12-31T11:25:20.985Z,997.2
2017-12-31T11:26:30.948Z,997.23
2017-12-31T11:27:40.898Z,997.13
2017-12-31T11:28:50.840Z,997.13
2017-12-31T11:30:00.556Z,997.13
2017-12-31T11:31:10.267Z,997.06
2017-12-31T11:32:20.234Z,997.02
2017-12-31T11:33:29.968Z,997.04
2017-12-31T11:34:39.988Z,997.06
2017-12-31T11:35:49.677Z,997.05
2017-12-31T11:36:59.378Z,997.07
2017-12-31T11:38:09.340Z,997.05
2017-12-31T11:39:19.280Z,997.11
2017-12-31T11:40:29.288Z,997.11
2017-12-31T11:41:39.036Z,997.06
2017-12-31T11:42:49.012Z,996.98
2017-12-31T11:43:58.992Z,997.01
2017-12-31T11:45:08.977Z,996.99
2017-12-31T11:46:18.951Z,997.01
2017-12-31T11:47:28.919Z,997.02
2017-12-31T11:48:38.924Z,996.95
2017-12-31T11:49:48.902Z,996.98
2017-12-31T11:50:58.861Z,996.99
2017-12-31T11:52:08.868Z,996.9
2017-12-31T11:53:18.294Z,996.99
2017-12-31T11:54:28.273Z,997.02
2017-12-31T11:55:38.239Z,996.99
2017-12-31T11:56:48.204Z,996.88
2017-12-31T11:57:58.173Z,996.96
2017-12-31T11:59:08.143Z,996.88
2017-12-31T12:00:18.091Z,996.89
2017-12-31T12:01:27.793Z,996.93
2017-12-31T12:02:37.493Z,996.86
2017-12-31T12:03:47.449Z,996.91
2017-12-31T12:04:57.172Z,996.87
2017-12-31T12:06:06.882Z,996.89
2017-12-31T12:07:16.828Z,996.88
2017-12-31T12:08:26.528Z,996.8
2017-12-31T12:09:36.491Z,996.87
2017-12-31T12:10:46.474Z,996.82
2017-12-31T12:11:56.483Z,996.81
2017-12-31T12:13:06.477Z,996.92
2017-12-31T12:14:16.186Z,996.82
2017-12-31T12:15:25.900Z,996.83
2017-12-31T12:16:35.966Z,996.75
2017-12-31T12:17:45.917Z,996.89
2017-12-31T12:18:55.887Z,996.76
2017-12-31T12:20:05.609Z,996.75
2017-12-31T12:21:15.302Z,996.72
2017-12-31T12:22:25.256Z,996.72
2017-12-31T12:23:35.238Z,996.71
2017-12-31T12:24:45.219Z,996.73
2017-12-31T12:25:54.925Z,996.74
2017-12-31T12:27:04.674Z,996.71
2017-12-31T12:28:14.385Z,996.74
2017-12-31T12:29:23.812Z,996.69
2017-12-31T12:30:33.515Z,996.68
2017-12-31T12:31:43.475Z,996.69
2017-12-31T12:32:53.165Z,996.7
2017-12-31T12:34:03.121Z,996.64
2017-12-31T12:35:13.090Z,996.59
2017-12-31T12:36:23.048Z,996.61
2017-12-31T12:37:33.008Z,996.61
2017-12-31T12:38:42.455Z,996.57
2017-12-31T12:39:52.181Z,996.55
2017-12-31T12:41:02.134Z,996.54
2017-12-31T12:42:12.096Z,996.59
2017-12-31T12:43:22.073Z,996.5
2017-12-31T12:44:32.021Z,996.49
2017-12-31T12:45:41.721Z,996.56
2017-12-31T12:46:51.676Z,996.47
2017-12-31T12:48:01.389Z,996.48
2017-12-31T12:49:11.428Z,996.48
2017-12-31T12:50:21.392Z,996.5
2017-12-31T12:51:31.397Z,996.45
2017-12-31T12:52:41.368Z,996.45
2017-12-31T12:53:51.332Z,996.46
2017-12-31T12:55:01.284Z,996.44
2017-12-31T12:56:10.994Z,996.42
2017-12-31T12:57:20.942Z,996.46
2017-12-31T12:58:30.919Z,996.39
2017-12-31T12:59:40.905Z,996.41
2017-12-31T13:00:50.859Z,996.44
2017-12-31T13:02:00.555Z,996.36
2017-12-31T13:03:10.523Z,996.38
2017-12-31T13:04:20.480Z,996.39
2017-12-31T13:05:29.914Z,996.37
2017-12-31T13:06:39.345Z,996.42
2017-12-31T13:07:49.293Z,996.42
2017-12-31T13:08:59.015Z,996.35
2017-12-31T13:10:08.986Z,996.35
2017-12-31T13:11:18.943Z,996.47
2017-12-31T13:12:28.898Z,996.32
2017-12-31T13:13:38.867Z,996.36
2017-12-31T13:14:48.864Z,996.39
2017-12-31T13:15:58.825Z,996.37
2017-12-31T13:17:08.258Z,996.37
2017-12-31T13:18:18.349Z,996.32
2017-12-31T13:19:28.311Z,996.29
2017-12-31T13:20:38.016Z,996.34
2017-12-31T13:21:47.978Z,996.43
2017-12-31T13:22:57.408Z,996.35
2017-12-31T13:24:07.360Z,996.35
2017-12-31T13:25:17.383Z,996.31
2017-12-31T13:26:27.353Z,996.29
2017-12-31T13:27:37.323Z,996.28
2017-12-31T13:28:47.279Z,996.25
2017-12-31T13:29:57.009Z,996.32
2017-12-31T13:31:07.003Z,996.23
2017-12-31T13:32:16.957Z,996.18
2017-12-31T13:33:26.926Z,996.21
2017-12-31T13:34:36.942Z,996.17
2017-12-31T13:35:46.659Z,996.14
2017-12-31T13:36:56.659Z,996.19
2017-12-31T13:38:06.631Z,996.17
2017-12-31T13:39:16.591Z,996.16
2017-12-31T13:40:26.543Z,996.07
2017-12-31T13:41:35.984Z,996.13
2017-12-31T13:42:45.952Z,996.2
2017-12-31T13:43:55.895Z,996.15
2017-12-31T13:45:05.612Z,996.16
2017-12-31T13:46:15.599Z,996.06
2017-12-31T13:47:25.552Z,996.16
2017-12-31T13:48:35.527Z,996.07
2017-12-31T13:49:45.233Z,995.99
2017-12-31T13:50:54.933Z,995.97
2017-12-31T13:52:04.888Z,996.13
2017-12-31T13:53:14.593Z,996.12
2017-12-31T13:54:24.284Z,996.06
2017-12-31T13:55:33.985Z,996.01
2017-12-31T13:56:43.948Z,996.11
2017-12-31T13:57:53.949Z,996.1
2017-12-31T13:59:03.637Z,996.07
2017-12-31T14:00:13.593Z,995.95
2017-12-31T14:01:23.285Z,996
2017-12-31T14:02:32.721Z,996
2017-12-31T14:03:42.152Z,996.13
2017-12-31T14:04:52.118Z,996.03
2017-12-31T14:06:02.142Z,996.06
2017-12-31T14:07:12.103Z,996.05
2017-12-31T14:08:22.070Z,996.04
2017-12-31T14:09:32.032Z,996.07
2017-12-31T14:10:42.246Z,996.08
2017-12-31T14:11:51.950Z,996.13
2017-12-31T14:13:01.912Z,996.08
2017-12-31T14:14:11.868Z,996.08
2017-12-31T14:15:21.319Z,996.08
2017-12-31T14:16:31.272Z,996.06
2017-12-31T14:17:41.228Z,996.03
2017-12-31T14:18:50.925Z,996.06
2017-12-31T14:20:01.023Z,996.08
2017-12-31T14:21:10.734Z,996.1
2017-12-31T14:22:20.686Z,996.06
2017-12-31T14:23:30.709Z,996.08
2017-12-31T14:24:40.675Z,996.04
2017-12-31T14:25:50.642Z,996.06
2017-12-31T14:27:00.591Z,996.02
2017-12-31T14:28:10.568Z,996.04
2017-12-31T14:29:20.513Z,995.92
2017-12-31T14:30:30.476Z,996
2017-12-31T14:31:40.458Z,995.99
2017-12-31T14:32:50.481Z,995.94
2017-12-31T14:34:00.182Z,995.97
2017-12-31T14:35:10.144Z,995.92
2017-12-31T14:36:19.861Z,995.9